Archival Weather

Tokyo Intl

Tokyo, Japan (RJTT)

Report from: Saturday, April 1, 2023 7:30 AM JST
Current time: Sunday, July 14, 2024 8:44 PM JST

Current weather – Weather history – Daily summaries
Weather forecast

Temperature15.0°C (59.0°F)
Dew point9.0°C (48.2°F)
Winds 3 kts (1.5 m/s, 3.5 mph) Vrb
Winds variableWinds variable from North-Northwest (330°) to North-Northeast (30°)
Clouds Sky clear
Altimeter30.03 in.Hg (1017 mB)
Relative humidity67 %
Density altitude37 ft. (11 m)
Remarks Ceiling and visibility OK
No significant changes expected in the next two hours
Flight conditions Visual Meteorological Conditions
Raw dataRJTT 312230Z 01003KT 330V030 CAVOK 15/09 Q1017 NOSIG
An error has occurred. This application may no longer respond until reloaded. Reload 🗙